sensor_id;sensor_type;location;lat;lon;timestamp;temperature;humidity
12841;DHT22;6487;48.626;12.486;2022-08-19T00:01:56;21.10;99.90
12841;DHT22;6487;48.626;12.486;2022-08-19T00:04:29;21.20;99.90
12841;DHT22;6487;48.626;12.486;2022-08-19T00:06:59;21.20;99.90
12841;DHT22;6487;48.626;12.486;2022-08-19T00:09:28;21.30;99.90
12841;DHT22;6487;48.626;12.486;2022-08-19T00:11:58;21.30;99.90
12841;DHT22;6487;48.626;12.486;2022-08-19T00:14:27;21.30;99.90
12841;DHT22;6487;48.626;12.486;2022-08-19T00:16:59;21.30;99.90
12841;DHT22;6487;48.626;12.486;2022-08-19T00:19:31;21.40;99.90
12841;DHT22;6487;48.626;12.486;2022-08-19T00:22:00;21.40;99.90
12841;DHT22;6487;48.626;12.486;2022-08-19T00:24:29;21.40;99.90
12841;DHT22;6487;48.626;12.486;2022-08-19T00:26:58;21.30;99.90
12841;DHT22;6487;48.626;12.486;2022-08-19T00:29:48;21.40;99.90
12841;DHT22;6487;48.626;12.486;2022-08-19T00:32:18;21.50;99.90
12841;DHT22;6487;48.626;12.486;2022-08-19T00:34:48;21.40;99.90
12841;DHT22;6487;48.626;12.486;2022-08-19T00:37:18;21.40;99.90
12841;DHT22;6487;48.626;12.486;2022-08-19T00:39:49;21.40;99.90
12841;DHT22;6487;48.626;12.486;2022-08-19T00:42:20;21.40;99.90
12841;DHT22;6487;48.626;12.486;2022-08-19T00:44:48;21.50;99.90
12841;DHT22;6487;48.626;12.486;2022-08-19T00:47:17;21.40;99.90
12841;DHT22;6487;48.626;12.486;2022-08-19T00:49:50;21.50;99.90
12841;DHT22;6487;48.626;12.486;2022-08-19T00:52:24;21.50;99.90
12841;DHT22;6487;48.626;12.486;2022-08-19T00:54:56;21.50;99.90
12841;DHT22;6487;48.626;12.486;2022-08-19T00:57:28;21.50;99.90
12841;DHT22;6487;48.626;12.486;2022-08-19T01:00:00;21.50;99.90
12841;DHT22;6487;48.626;12.486;2022-08-19T01:02:30;21.60;99.90
12841;DHT22;6487;48.626;12.486;2022-08-19T01:05:02;21.50;99.90
12841;DHT22;6487;48.626;12.486;2022-08-19T01:07:35;21.50;99.90
12841;DHT22;6487;48.626;12.486;2022-08-19T01:10:10;21.50;99.90
12841;DHT22;6487;48.626;12.486;2022-08-19T01:12:41;21.60;99.90
12841;DHT22;6487;48.626;12.486;2022-08-19T01:15:12;21.60;99.90
12841;DHT22;6487;48.626;12.486;2022-08-19T01:17:43;21.60;99.90
12841;DHT22;6487;48.626;12.486;2022-08-19T01:20:16;21.60;99.90
12841;DHT22;6487;48.626;12.486;2022-08-19T01:22:50;21.60;99.90
12841;DHT22;6487;48.626;12.486;2022-08-19T01:25:28;21.50;99.90
12841;DHT22;6487;48.626;12.486;2022-08-19T01:27:59;21.60;99.90
12841;DHT22;6487;48.626;12.486;2022-08-19T01:30:36;21.60;99.90
12841;DHT22;6487;48.626;12.486;2022-08-19T01:33:10;21.60;99.90
12841;DHT22;6487;48.626;12.486;2022-08-19T01:35:39;21.50;99.90
12841;DHT22;6487;48.626;12.486;2022-08-19T01:38:18;21.50;99.90
12841;DHT22;6487;48.626;12.486;2022-08-19T01:40:48;21.40;99.90
12841;DHT22;6487;48.626;12.486;2022-08-19T01:43:16;21.40;99.90
12841;DHT22;6487;48.626;12.486;2022-08-19T01:45:46;21.40;99.90
12841;DHT22;6487;48.626;12.486;2022-08-19T01:48:14;21.50;99.90
12841;DHT22;6487;48.626;12.486;2022-08-19T01:50:42;21.60;99.90
12841;DHT22;6487;48.626;12.486;2022-08-19T01:53:12;21.60;99.90
12841;DHT22;6487;48.626;12.486;2022-08-19T01:55:42;21.50;99.90
12841;DHT22;6487;48.626;12.486;2022-08-19T01:58:14;21.50;99.90
12841;DHT22;6487;48.626;12.486;2022-08-19T02:00:45;21.50;99.90
12841;DHT22;6487;48.626;12.486;2022-08-19T02:03:15;21.60;99.90
12841;DHT22;6487;48.626;12.486;2022-08-19T02:05:44;21.60;99.90
12841;DHT22;6487;48.626;12.486;2022-08-19T02:08:14;21.50;99.90
12841;DHT22;6487;48.626;12.486;2022-08-19T02:10:43;21.50;99.90
12841;DHT22;6487;48.626;12.486;2022-08-19T02:13:13;21.40;99.90
12841;DHT22;6487;48.626;12.486;2022-08-19T02:15:46;21.50;99.90
12841;DHT22;6487;48.626;12.486;2022-08-19T02:18:15;21.40;99.90
12841;DHT22;6487;48.626;12.486;2022-08-19T02:20:44;21.40;99.90
12841;DHT22;6487;48.626;12.486;2022-08-19T02:23:16;21.40;99.90
12841;DHT22;6487;48.626;12.486;2022-08-19T02:25:46;21.40;99.90
12841;DHT22;6487;48.626;12.486;2022-08-19T02:28:15;21.50;99.90
12841;DHT22;6487;48.626;12.486;2022-08-19T02:30:45;21.50;99.90
12841;DHT22;6487;48.626;12.486;2022-08-19T02:33:15;21.50;99.90
12841;DHT22;6487;48.626;12.486;2022-08-19T02:35:44;21.40;99.90
12841;DHT22;6487;48.626;12.486;2022-08-19T02:38:14;21.40;99.90
12841;DHT22;6487;48.626;12.486;2022-08-19T02:40:57;21.40;99.90
12841;DHT22;6487;48.626;12.486;2022-08-19T02:43:26;21.50;99.90
12841;DHT22;6487;48.626;12.486;2022-08-19T02:45:59;21.50;99.90
12841;DHT22;6487;48.626;12.486;2022-08-19T02:48:28;21.50;99.90
12841;DHT22;6487;48.626;12.486;2022-08-19T02:50:56;21.40;99.90
12841;DHT22;6487;48.626;12.486;2022-08-19T02:53:27;21.40;99.90
12841;DHT22;6487;48.626;12.486;2022-08-19T02:55:56;21.20;99.90
12841;DHT22;6487;48.626;12.486;2022-08-19T02:58:24;21.20;99.90
12841;DHT22;6487;48.626;12.486;2022-08-19T03:00:56;21.20;99.90
12841;DHT22;6487;48.626;12.486;2022-08-19T03:03:25;21.30;99.90
12841;DHT22;6487;48.626;12.486;2022-08-19T03:06:05;21.30;99.90
12841;DHT22;6487;48.626;12.486;2022-08-19T03:08:37;21.40;99.90
12841;DHT22;6487;48.626;12.486;2022-08-19T03:11:06;21.40;99.90
12841;DHT22;6487;48.626;12.486;2022-08-19T03:13:38;21.40;99.90
12841;DHT22;6487;48.626;12.486;2022-08-19T03:16:07;21.40;99.90
12841;DHT22;6487;48.626;12.486;2022-08-19T03:18:35;21.50;99.90
12841;DHT22;6487;48.626;12.486;2022-08-19T03:21:04;21.50;99.90
12841;DHT22;6487;48.626;12.486;2022-08-19T03:23:39;21.50;99.90
12841;DHT22;6487;48.626;12.486;2022-08-19T03:26:07;21.50;99.90
12841;DHT22;6487;48.626;12.486;2022-08-19T03:28:43;21.50;99.90
12841;DHT22;6487;48.626;12.486;2022-08-19T03:31:25;21.50;99.90
12841;DHT22;6487;48.626;12.486;2022-08-19T03:34:13;21.60;99.90
12841;DHT22;6487;48.626;12.486;2022-08-19T03:36:44;21.60;99.90
12841;DHT22;6487;48.626;12.486;2022-08-19T03:39:15;21.60;99.90
12841;DHT22;6487;48.626;12.486;2022-08-19T03:41:46;21.50;99.90
12841;DHT22;6487;48.626;12.486;2022-08-19T03:44:35;21.50;99.90
12841;DHT22;6487;48.626;12.486;2022-08-19T03:47:05;21.50;99.90
12841;DHT22;6487;48.626;12.486;2022-08-19T03:49:33;21.40;99.90
12841;DHT22;6487;48.626;12.486;2022-08-19T03:52:04;21.50;99.90
12841;DHT22;6487;48.626;12.486;2022-08-19T03:54:36;21.50;99.90
12841;DHT22;6487;48.626;12.486;2022-08-19T03:57:05;21.50;99.90
12841;DHT22;6487;48.626;12.486;2022-08-19T03:59:36;21.30;99.90
12841;DHT22;6487;48.626;12.486;2022-08-19T04:02:08;21.20;99.90
12841;DHT22;6487;48.626;12.486;2022-08-19T04:04:39;21.20;99.90
12841;DHT22;6487;48.626;12.486;2022-08-19T04:07:12;21.10;99.90
12841;DHT22;6487;48.626;12.486;2022-08-19T04:09:44;21.00;99.90
12841;DHT22;6487;48.626;12.486;2022-08-19T04:12:12;21.00;99.90
12841;DHT22;6487;48.626;12.486;2022-08-19T04:14:41;21.10;99.90
12841;DHT22;6487;48.626;12.486;2022-08-19T04:17:09;21.20;99.90
12841;DHT22;6487;48.626;12.486;2022-08-19T04:19:40;21.20;99.90
12841;DHT22;6487;48.626;12.486;2022-08-19T04:22:09;21.20;99.90
12841;DHT22;6487;48.626;12.486;2022-08-19T04:24:38;21.30;99.90
12841;DHT22;6487;48.626;12.486;2022-08-19T04:27:08;21.10;99.90
12841;DHT22;6487;48.626;12.486;2022-08-19T04:29:36;21.10;99.90
12841;DHT22;6487;48.626;12.486;2022-08-19T04:32:06;21.10;99.90
12841;DHT22;6487;48.626;12.486;2022-08-19T04:34:36;21.20;99.90
12841;DHT22;6487;48.626;12.486;2022-08-19T04:37:25;21.20;99.90
12841;DHT22;6487;48.626;12.486;2022-08-19T04:40:04;21.30;99.90
12841;DHT22;6487;48.626;12.486;2022-08-19T04:42:52;21.30;99.90
12841;DHT22;6487;48.626;12.486;2022-08-19T04:45:21;21.20;99.90
12841;DHT22;6487;48.626;12.486;2022-08-19T04:47:54;21.20;99.90
12841;DHT22;6487;48.626;12.486;2022-08-19T04:50:45;21.30;99.90
12841;DHT22;6487;48.626;12.486;2022-08-19T04:53:13;21.30;99.90
12841;DHT22;6487;48.626;12.486;2022-08-19T04:55:42;21.30;99.90
12841;DHT22;6487;48.626;12.486;2022-08-19T04:58:12;21.30;99.90
12841;DHT22;6487;48.626;12.486;2022-08-19T05:00:41;21.40;99.90
12841;DHT22;6487;48.626;12.486;2022-08-19T05:03:10;21.30;99.90
12841;DHT22;6487;48.626;12.486;2022-08-19T05:05:39;21.20;99.90
12841;DHT22;6487;48.626;12.486;2022-08-19T05:08:10;21.20;99.90
12841;DHT22;6487;48.626;12.486;2022-08-19T05:10:41;21.10;99.90
12841;DHT22;6487;48.626;12.486;2022-08-19T05:13:09;20.90;99.90
12841;DHT22;6487;48.626;12.486;2022-08-19T05:15:39;20.80;99.90
12841;DHT22;6487;48.626;12.486;2022-08-19T05:18:08;20.90;99.90
12841;DHT22;6487;48.626;12.486;2022-08-19T05:20:55;20.80;99.90
12841;DHT22;6487;48.626;12.486;2022-08-19T05:23:40;20.70;99.90
12841;DHT22;6487;48.626;12.486;2022-08-19T05:26:09;20.70;99.90
12841;DHT22;6487;48.626;12.486;2022-08-19T05:28:39;20.80;99.90
12841;DHT22;6487;48.626;12.486;2022-08-19T05:31:07;20.90;99.90
12841;DHT22;6487;48.626;12.486;2022-08-19T05:33:35;21.00;99.90
12841;DHT22;6487;48.626;12.486;2022-08-19T05:36:06;21.00;99.90
12841;DHT22;6487;48.626;12.486;2022-08-19T05:38:35;21.00;99.90
12841;DHT22;6487;48.626;12.486;2022-08-19T05:41:07;21.10;99.90
12841;DHT22;6487;48.626;12.486;2022-08-19T05:43:38;21.10;99.90
12841;DHT22;6487;48.626;12.486;2022-08-19T05:46:07;21.10;99.90
12841;DHT22;6487;48.626;12.486;2022-08-19T05:48:36;21.20;99.90
12841;DHT22;6487;48.626;12.486;2022-08-19T05:51:05;21.10;99.90
12841;DHT22;6487;48.626;12.486;2022-08-19T05:53:35;21.10;99.90
12841;DHT22;6487;48.626;12.486;2022-08-19T05:56:04;21.10;99.90
12841;DHT22;6487;48.626;12.486;2022-08-19T05:58:33;21.10;99.90
12841;DHT22;6487;48.626;12.486;2022-08-19T06:01:04;21.10;99.90
12841;DHT22;6487;48.626;12.486;2022-08-19T06:03:37;21.10;99.90
12841;DHT22;6487;48.626;12.486;2022-08-19T06:06:06;21.10;99.90
12841;DHT22;6487;48.626;12.486;2022-08-19T06:08:36;21.10;99.90
12841;DHT22;6487;48.626;12.486;2022-08-19T06:11:17;21.00;99.90
12841;DHT22;6487;48.626;12.486;2022-08-19T06:13:52;20.90;99.90
12841;DHT22;6487;48.626;12.486;2022-08-19T06:16:28;20.90;99.90
12841;DHT22;6487;48.626;12.486;2022-08-19T06:19:00;20.80;99.90
12841;DHT22;6487;48.626;12.486;2022-08-19T06:21:30;20.90;99.90
12841;DHT22;6487;48.626;12.486;2022-08-19T06:23:59;20.90;99.90
12841;DHT22;6487;48.626;12.486;2022-08-19T06:26:27;20.90;99.90
12841;DHT22;6487;48.626;12.486;2022-08-19T06:28:56;20.90;99.90
12841;DHT22;6487;48.626;12.486;2022-08-19T06:31:28;21.00;99.90
12841;DHT22;6487;48.626;12.486;2022-08-19T06:34:00;21.10;99.90
12841;DHT22;6487;48.626;12.486;2022-08-19T06:36:32;21.20;99.90
12841;DHT22;6487;48.626;12.486;2022-08-19T06:39:03;21.30;99.90
12841;DHT22;6487;48.626;12.486;2022-08-19T06:41:35;21.40;99.90
12841;DHT22;6487;48.626;12.486;2022-08-19T06:44:13;21.40;99.90
12841;DHT22;6487;48.626;12.486;2022-08-19T06:46:47;21.50;99.90
12841;DHT22;6487;48.626;12.486;2022-08-19T06:49:21;21.50;99.90
12841;DHT22;6487;48.626;12.486;2022-08-19T06:51:50;21.40;99.90
12841;DHT22;6487;48.626;12.486;2022-08-19T06:54:20;21.40;99.90
12841;DHT22;6487;48.626;12.486;2022-08-19T06:56:57;21.50;99.90
12841;DHT22;6487;48.626;12.486;2022-08-19T06:59:29;21.60;99.90
12841;DHT22;6487;48.626;12.486;2022-08-19T07:02:03;21.60;99.90
12841;DHT22;6487;48.626;12.486;2022-08-19T07:04:35;21.60;99.90
12841;DHT22;6487;48.626;12.486;2022-08-19T07:07:11;21.60;99.90
12841;DHT22;6487;48.626;12.486;2022-08-19T07:09:48;21.70;99.90
12841;DHT22;6487;48.626;12.486;2022-08-19T07:12:29;21.60;99.90
12841;DHT22;6487;48.626;12.486;2022-08-19T07:15:02;21.60;99.90
12841;DHT22;6487;48.626;12.486;2022-08-19T07:17:33;21.70;99.90
12841;DHT22;6487;48.626;12.486;2022-08-19T07:20:06;21.80;99.90
12841;DHT22;6487;48.626;12.486;2022-08-19T07:22:36;21.80;99.90
12841;DHT22;6487;48.626;12.486;2022-08-19T07:25:07;21.90;99.90
12841;DHT22;6487;48.626;12.486;2022-08-19T07:27:36;21.90;99.90
12841;DHT22;6487;48.626;12.486;2022-08-19T07:30:06;21.90;99.90
12841;DHT22;6487;48.626;12.486;2022-08-19T07:32:40;21.90;99.90
12841;DHT22;6487;48.626;12.486;2022-08-19T07:35:09;21.90;99.90
12841;DHT22;6487;48.626;12.486;2022-08-19T07:37:37;22.00;99.90
12841;DHT22;6487;48.626;12.486;2022-08-19T07:40:12;22.00;99.90
12841;DHT22;6487;48.626;12.486;2022-08-19T07:42:40;22.10;99.90
12841;DHT22;6487;48.626;12.486;2022-08-19T07:45:09;22.10;99.90
12841;DHT22;6487;48.626;12.486;2022-08-19T07:47:39;22.10;99.90
12841;DHT22;6487;48.626;12.486;2022-08-19T07:50:17;22.20;99.90
12841;DHT22;6487;48.626;12.486;2022-08-19T07:52:47;22.10;99.90
12841;DHT22;6487;48.626;12.486;2022-08-19T07:55:21;22.20;99.90
12841;DHT22;6487;48.626;12.486;2022-08-19T07:58:10;22.20;99.90
12841;DHT22;6487;48.626;12.486;2022-08-19T08:00:39;22.30;99.90
12841;DHT22;6487;48.626;12.486;2022-08-19T08:03:10;22.30;99.90
12841;DHT22;6487;48.626;12.486;2022-08-19T08:05:39;22.20;99.90
12841;DHT22;6487;48.626;12.486;2022-08-19T08:08:26;22.20;99.90
12841;DHT22;6487;48.626;12.486;2022-08-19T08:11:27;22.20;99.90
12841;DHT22;6487;48.626;12.486;2022-08-19T08:13:55;22.20;99.90
12841;DHT22;6487;48.626;12.486;2022-08-19T08:16:27;22.40;99.90
12841;DHT22;6487;48.626;12.486;2022-08-19T08:18:59;22.40;99.90
12841;DHT22;6487;48.626;12.486;2022-08-19T08:21:28;22.50;99.90
12841;DHT22;6487;48.626;12.486;2022-08-19T08:23:56;22.50;99.90
12841;DHT22;6487;48.626;12.486;2022-08-19T08:26:29;22.60;99.90
12841;DHT22;6487;48.626;12.486;2022-08-19T08:29:00;22.60;99.90
12841;DHT22;6487;48.626;12.486;2022-08-19T08:31:39;22.60;99.90
12841;DHT22;6487;48.626;12.486;2022-08-19T08:34:10;22.50;99.90
12841;DHT22;6487;48.626;12.486;2022-08-19T08:36:41;22.50;99.90
12841;DHT22;6487;48.626;12.486;2022-08-19T08:39:13;22.60;99.90
12841;DHT22;6487;48.626;12.486;2022-08-19T08:41:49;22.70;99.90
12841;DHT22;6487;48.626;12.486;2022-08-19T08:44:23;22.80;99.90
12841;DHT22;6487;48.626;12.486;2022-08-19T08:46:57;22.80;99.90
12841;DHT22;6487;48.626;12.486;2022-08-19T08:49:36;22.80;99.90
12841;DHT22;6487;48.626;12.486;2022-08-19T08:52:12;22.90;99.90
12841;DHT22;6487;48.626;12.486;2022-08-19T08:54:46;23.00;99.90
12841;DHT22;6487;48.626;12.486;2022-08-19T08:57:26;22.90;99.90
12841;DHT22;6487;48.626;12.486;2022-08-19T09:00:09;23.00;99.90
12841;DHT22;6487;48.626;12.486;2022-08-19T09:02:41;23.00;99.90
12841;DHT22;6487;48.626;12.486;2022-08-19T09:05:18;23.10;99.90
12841;DHT22;6487;48.626;12.486;2022-08-19T09:07:58;23.00;99.90
12841;DHT22;6487;48.626;12.486;2022-08-19T09:10:34;22.90;99.90
12841;DHT22;6487;48.626;12.486;2022-08-19T09:13:17;22.90;99.90
12841;DHT22;6487;48.626;12.486;2022-08-19T09:15:52;22.80;99.90
12841;DHT22;6487;48.626;12.486;2022-08-19T09:18:24;22.80;99.90
12841;DHT22;6487;48.626;12.486;2022-08-19T09:20:56;22.80;99.90
12841;DHT22;6487;48.626;12.486;2022-08-19T09:23:25;22.80;99.90
12841;DHT22;6487;48.626;12.486;2022-08-19T09:25:53;22.80;99.90
12841;DHT22;6487;48.626;12.486;2022-08-19T09:28:24;22.70;99.90
12841;DHT22;6487;48.626;12.486;2022-08-19T09:30:53;22.70;99.90
12841;DHT22;6487;48.626;12.486;2022-08-19T09:33:21;22.70;99.90
12841;DHT22;6487;48.626;12.486;2022-08-19T09:35:49;22.70;99.90
12841;DHT22;6487;48.626;12.486;2022-08-19T09:38:21;22.70;99.90
12841;DHT22;6487;48.626;12.486;2022-08-19T09:40:49;22.70;99.90
12841;DHT22;6487;48.626;12.486;2022-08-19T09:43:18;22.70;99.90
12841;DHT22;6487;48.626;12.486;2022-08-19T09:45:59;22.70;99.90
12841;DHT22;6487;48.626;12.486;2022-08-19T09:48:28;22.80;99.90
12841;DHT22;6487;48.626;12.486;2022-08-19T09:51:03;22.80;99.90
12841;DHT22;6487;48.626;12.486;2022-08-19T09:53:39;22.80;99.90
12841;DHT22;6487;48.626;12.486;2022-08-19T09:56:08;22.80;99.90
12841;DHT22;6487;48.626;12.486;2022-08-19T09:58:37;22.70;99.90
12841;DHT22;6487;48.626;12.486;2022-08-19T10:01:07;22.70;99.90
12841;DHT22;6487;48.626;12.486;2022-08-19T10:03:36;22.80;99.90
12841;DHT22;6487;48.626;12.486;2022-08-19T10:06:05;22.80;99.90
12841;DHT22;6487;48.626;12.486;2022-08-19T10:08:45;22.80;99.90
12841;DHT22;6487;48.626;12.486;2022-08-19T10:11:16;22.90;99.90
12841;DHT22;6487;48.626;12.486;2022-08-19T10:14:02;22.90;99.90
12841;DHT22;6487;48.626;12.486;2022-08-19T10:16:32;22.90;99.90
12841;DHT22;6487;48.626;12.486;2022-08-19T10:19:05;23.00;99.90
12841;DHT22;6487;48.626;12.486;2022-08-19T10:21:34;23.00;99.90
12841;DHT22;6487;48.626;12.486;2022-08-19T10:24:05;23.10;99.90
12841;DHT22;6487;48.626;12.486;2022-08-19T10:26:36;23.20;99.90
12841;DHT22;6487;48.626;12.486;2022-08-19T10:29:08;23.20;99.90
12841;DHT22;6487;48.626;12.486;2022-08-19T10:31:38;23.20;99.90
12841;DHT22;6487;48.626;12.486;2022-08-19T10:34:27;23.20;99.90
12841;DHT22;6487;48.626;12.486;2022-08-19T10:36:57;23.20;99.90
12841;DHT22;6487;48.626;12.486;2022-08-19T10:39:30;23.10;99.90
12841;DHT22;6487;48.626;12.486;2022-08-19T10:42:09;23.20;99.90
12841;DHT22;6487;48.626;12.486;2022-08-19T10:44:40;23.20;99.90
12841;DHT22;6487;48.626;12.486;2022-08-19T10:47:09;23.20;99.90
12841;DHT22;6487;48.626;12.486;2022-08-19T10:49:52;23.30;99.90
12841;DHT22;6487;48.626;12.486;2022-08-19T10:52:39;23.30;99.90
12841;DHT22;6487;48.626;12.486;2022-08-19T10:55:19;23.30;99.90
12841;DHT22;6487;48.626;12.486;2022-08-19T10:58:11;23.20;99.90
12841;DHT22;6487;48.626;12.486;2022-08-19T11:00:40;23.10;99.90
12841;DHT22;6487;48.626;12.486;2022-08-19T11:03:10;23.20;99.90
12841;DHT22;6487;48.626;12.486;2022-08-19T11:05:38;23.20;99.90
12841;DHT22;6487;48.626;12.486;2022-08-19T11:08:08;23.10;99.90
12841;DHT22;6487;48.626;12.486;2022-08-19T11:10:51;23.10;99.90
12841;DHT22;6487;48.626;12.486;2022-08-19T11:13:24;22.90;99.90
12841;DHT22;6487;48.626;12.486;2022-08-19T11:16:00;22.70;99.90
12841;DHT22;6487;48.626;12.486;2022-08-19T11:18:35;22.70;99.90
12841;DHT22;6487;48.626;12.486;2022-08-19T11:21:09;22.70;99.90
12841;DHT22;6487;48.626;12.486;2022-08-19T11:23:39;22.70;99.90
12841;DHT22;6487;48.626;12.486;2022-08-19T11:26:09;22.60;99.90
12841;DHT22;6487;48.626;12.486;2022-08-19T11:28:38;22.50;99.90
12841;DHT22;6487;48.626;12.486;2022-08-19T11:31:10;22.60;99.90
12841;DHT22;6487;48.626;12.486;2022-08-19T11:33:39;22.60;99.90
12841;DHT22;6487;48.626;12.486;2022-08-19T11:36:13;22.50;99.90
12841;DHT22;6487;48.626;12.486;2022-08-19T11:38:42;22.40;99.90
12841;DHT22;6487;48.626;12.486;2022-08-19T11:41:12;22.50;99.90
12841;DHT22;6487;48.626;12.486;2022-08-19T11:43:40;22.60;99.90
12841;DHT22;6487;48.626;12.486;2022-08-19T11:46:11;22.60;99.90
12841;DHT22;6487;48.626;12.486;2022-08-19T11:48:41;22.70;99.90
12841;DHT22;6487;48.626;12.486;2022-08-19T11:51:12;22.80;99.90
12841;DHT22;6487;48.626;12.486;2022-08-19T11:53:41;23.00;99.90
12841;DHT22;6487;48.626;12.486;2022-08-19T11:56:12;23.00;99.90
12841;DHT22;6487;48.626;12.486;2022-08-19T11:58:40;23.10;99.90
12841;DHT22;6487;48.626;12.486;2022-08-19T12:01:11;23.20;99.90
12841;DHT22;6487;48.626;12.486;2022-08-19T12:03:42;23.10;99.90
12841;DHT22;6487;48.626;12.486;2022-08-19T12:06:14;23.20;99.90
12841;DHT22;6487;48.626;12.486;2022-08-19T12:08:44;23.40;99.90
12841;DHT22;6487;48.626;12.486;2022-08-19T12:11:15;23.70;99.90
12841;DHT22;6487;48.626;12.486;2022-08-19T12:13:44;23.80;99.90
12841;DHT22;6487;48.626;12.486;2022-08-19T12:16:15;23.90;99.90
12841;DHT22;6487;48.626;12.486;2022-08-19T12:18:45;23.90;99.90
12841;DHT22;6487;48.626;12.486;2022-08-19T12:21:14;24.10;99.90
12841;DHT22;6487;48.626;12.486;2022-08-19T12:23:44;24.00;99.90
12841;DHT22;6487;48.626;12.486;2022-08-19T12:26:14;24.00;99.90
12841;DHT22;6487;48.626;12.486;2022-08-19T12:28:43;24.10;99.90
12841;DHT22;6487;48.626;12.486;2022-08-19T12:31:12;24.40;99.90
12841;DHT22;6487;48.626;12.486;2022-08-19T12:33:41;24.50;99.90
12841;DHT22;6487;48.626;12.486;2022-08-19T12:36:12;24.50;99.90
12841;DHT22;6487;48.626;12.486;2022-08-19T12:38:42;24.50;99.90
12841;DHT22;6487;48.626;12.486;2022-08-19T12:41:12;24.50;99.90
12841;DHT22;6487;48.626;12.486;2022-08-19T12:43:45;24.50;99.90
12841;DHT22;6487;48.626;12.486;2022-08-19T12:46:16;24.50;99.90
12841;DHT22;6487;48.626;12.486;2022-08-19T12:48:45;24.40;99.90
12841;DHT22;6487;48.626;12.486;2022-08-19T12:51:19;24.30;99.90
12841;DHT22;6487;48.626;12.486;2022-08-19T12:53:48;24.40;99.90
12841;DHT22;6487;48.626;12.486;2022-08-19T12:56:18;24.60;99.90
12841;DHT22;6487;48.626;12.486;2022-08-19T12:58:49;24.80;99.90
12841;DHT22;6487;48.626;12.486;2022-08-19T13:01:19;24.80;99.90
12841;DHT22;6487;48.626;12.486;2022-08-19T13:03:50;24.70;99.90
12841;DHT22;6487;48.626;12.486;2022-08-19T13:06:20;24.80;99.90
12841;DHT22;6487;48.626;12.486;2022-08-19T13:08:49;24.80;99.90
12841;DHT22;6487;48.626;12.486;2022-08-19T13:11:24;24.80;99.90
12841;DHT22;6487;48.626;12.486;2022-08-19T13:13:53;24.90;99.90
12841;DHT22;6487;48.626;12.486;2022-08-19T13:16:22;24.90;99.90
12841;DHT22;6487;48.626;12.486;2022-08-19T13:18:51;24.90;99.90
12841;DHT22;6487;48.626;12.486;2022-08-19T13:21:21;25.10;99.90
12841;DHT22;6487;48.626;12.486;2022-08-19T13:23:51;25.20;99.90
12841;DHT22;6487;48.626;12.486;2022-08-19T13:26:21;25.20;99.90
12841;DHT22;6487;48.626;12.486;2022-08-19T13:28:50;25.10;99.90
12841;DHT22;6487;48.626;12.486;2022-08-19T13:31:39;25.00;99.90
12841;DHT22;6487;48.626;12.486;2022-08-19T13:34:30;25.10;99.90
12841;DHT22;6487;48.626;12.486;2022-08-19T13:37:01;25.10;99.90
12841;DHT22;6487;48.626;12.486;2022-08-19T13:39:31;25.20;99.90
12841;DHT22;6487;48.626;12.486;2022-08-19T13:42:02;25.30;99.90
12841;DHT22;6487;48.626;12.486;2022-08-19T13:44:32;25.30;99.90
12841;DHT22;6487;48.626;12.486;2022-08-19T13:47:02;25.30;99.90
12841;DHT22;6487;48.626;12.486;2022-08-19T13:49:34;25.20;99.90
12841;DHT22;6487;48.626;12.486;2022-08-19T13:52:04;25.30;99.90
12841;DHT22;6487;48.626;12.486;2022-08-19T13:54:33;25.30;99.90
12841;DHT22;6487;48.626;12.486;2022-08-19T13:57:01;25.20;99.90
12841;DHT22;6487;48.626;12.486;2022-08-19T13:59:31;25.20;99.90
12841;DHT22;6487;48.626;12.486;2022-08-19T14:02:00;25.20;99.90
12841;DHT22;6487;48.626;12.486;2022-08-19T14:04:29;25.10;99.90
12841;DHT22;6487;48.626;12.486;2022-08-19T14:09:33;25.00;99.90
12841;DHT22;6487;48.626;12.486;2022-08-19T14:12:02;25.00;99.90
12841;DHT22;6487;48.626;12.486;2022-08-19T14:14:36;25.00;99.90
12841;DHT22;6487;48.626;12.486;2022-08-19T14:17:06;25.00;99.90
12841;DHT22;6487;48.626;12.486;2022-08-19T14:19:37;25.10;99.90
12841;DHT22;6487;48.626;12.486;2022-08-19T14:22:06;25.20;99.90
12841;DHT22;6487;48.626;12.486;2022-08-19T14:24:37;25.30;99.90
12841;DHT22;6487;48.626;12.486;2022-08-19T14:27:13;25.40;99.90
12841;DHT22;6487;48.626;12.486;2022-08-19T14:29:43;25.30;99.60
12841;DHT22;6487;48.626;12.486;2022-08-19T14:32:12;25.30;99.60
12841;DHT22;6487;48.626;12.486;2022-08-19T14:34:42;25.20;99.70
12841;DHT22;6487;48.626;12.486;2022-08-19T14:37:12;25.30;99.90
12841;DHT22;6487;48.626;12.486;2022-08-19T14:39:42;25.20;99.90
12841;DHT22;6487;48.626;12.486;2022-08-19T14:42:11;25.10;99.90
12841;DHT22;6487;48.626;12.486;2022-08-19T14:44:43;25.10;99.90
12841;DHT22;6487;48.626;12.486;2022-08-19T14:47:11;25.10;99.90
12841;DHT22;6487;48.626;12.486;2022-08-19T14:49:39;24.90;99.90
12841;DHT22;6487;48.626;12.486;2022-08-19T14:52:14;25.00;99.90
12841;DHT22;6487;48.626;12.486;2022-08-19T14:54:42;24.90;99.90
12841;DHT22;6487;48.626;12.486;2022-08-19T14:57:12;24.90;99.90
12841;DHT22;6487;48.626;12.486;2022-08-19T14:59:43;24.80;99.90
12841;DHT22;6487;48.626;12.486;2022-08-19T15:02:11;24.80;99.90
12841;DHT22;6487;48.626;12.486;2022-08-19T15:05:00;24.90;99.90
12841;DHT22;6487;48.626;12.486;2022-08-19T15:07:29;24.80;99.90
12841;DHT22;6487;48.626;12.486;2022-08-19T15:09:58;24.90;99.90
12841;DHT22;6487;48.626;12.486;2022-08-19T15:12:26;24.80;99.90
12841;DHT22;6487;48.626;12.486;2022-08-19T15:14:56;24.90;99.90
12841;DHT22;6487;48.626;12.486;2022-08-19T15:17:24;24.80;99.90
12841;DHT22;6487;48.626;12.486;2022-08-19T15:20:17;24.80;99.90
12841;DHT22;6487;48.626;12.486;2022-08-19T15:22:47;24.70;99.90
12841;DHT22;6487;48.626;12.486;2022-08-19T15:25:17;24.70;99.90
12841;DHT22;6487;48.626;12.486;2022-08-19T15:27:47;24.80;99.90
12841;DHT22;6487;48.626;12.486;2022-08-19T15:30:21;24.80;99.90
12841;DHT22;6487;48.626;12.486;2022-08-19T15:32:51;24.80;99.90
12841;DHT22;6487;48.626;12.486;2022-08-19T15:35:22;24.80;99.90
12841;DHT22;6487;48.626;12.486;2022-08-19T15:37:52;24.90;99.90
12841;DHT22;6487;48.626;12.486;2022-08-19T15:40:23;24.80;99.90
12841;DHT22;6487;48.626;12.486;2022-08-19T15:42:53;24.90;99.90
12841;DHT22;6487;48.626;12.486;2022-08-19T15:45:23;24.90;99.90
12841;DHT22;6487;48.626;12.486;2022-08-19T15:47:58;24.80;99.90
12841;DHT22;6487;48.626;12.486;2022-08-19T15:50:28;24.80;99.90
12841;DHT22;6487;48.626;12.486;2022-08-19T15:52:59;24.80;99.90
12841;DHT22;6487;48.626;12.486;2022-08-19T15:55:31;24.90;99.90
12841;DHT22;6487;48.626;12.486;2022-08-19T15:58:04;24.90;99.70
12841;DHT22;6487;48.626;12.486;2022-08-19T16:00:57;24.90;99.90
12841;DHT22;6487;48.626;12.486;2022-08-19T16:03:46;24.80;99.90